Flight Track Log - Related Links

Times and Time Zones

All times are in EST time to prevent confusion due to time zone crossing. See the N551US flight status page for this flight to view local times or setup timezone preferences in your user account.

Time Position Orientation Groundspeed Altitude Reporting Facility
EST Latitude Longitude Course Direction KTS MPH feet Rate Location/Type
Mon 09:50:42 AM 30.2161 -82.5633 316° Northwest 179 206 1,600  Level Jacksonville Center
Mon 09:51:42 AM 30.2494 -82.5944 321° Northwest 167 192 2,300 750 Climbing Jacksonville Center
Mon 09:52:42 AM 30.2767 -82.6256 315° West 148 170 3,100 800 Climbing Jacksonville Center
Mon 09:53:00 AM 30.3578 -82.7316 316° Northwest  Level Estimated
Mon 09:53:42 AM 30.3039 -82.6567 315° West 143 165 3,900  Level Jacksonville Center
Mon 09:54:42 AM 30.3331 -82.6856 319° Northwest 143 165 4,700 750 Climbing Jacksonville Center
Mon 09:55:42 AM 30.3625 -82.7144 320° Northwest 143 165 5,400 765 Climbing Jacksonville Center
Mon 09:56:24 AM 30.3792 -82.7361 312° West 133 153 6,000 700 Climbing Jacksonville Center
Mon 09:56:42 AM 30.3897 -82.7433 329° Northwest 143 165 6,100 612 Climbing Jacksonville Center
Mon 09:57:13 AM 30.4022 -82.7600 311° West 131 151 6,500 700 Climbing Jacksonville Center
Mon 09:57:42 AM 30.4147 -82.7722 320° Northwest 138 159 6,800 700 Climbing Jacksonville Center
Mon 09:58:13 AM 30.4272 -82.7867 315° West 128 147 7,200 700 Climbing Jacksonville Center
Mon 09:58:42 AM 30.4419 -82.7986 325° Northwest 138 159 7,500 590 Climbing Jacksonville Center
Mon 09:59:14 AM 30.4544 -82.8156 311° West 127 146 7,800 400 Climbing Jacksonville Center
Mon 09:59:42 AM 30.4692 -82.8275 325° Northwest 132 152 7,900 197 Climbing Jacksonville Center
Mon 10:00:15 AM 30.4817 -82.8444 311° West 137 158 8,000 100 Climbing Jacksonville Center
Mon 10:00:42 AM 30.5003 -82.8611 322° Northwest 140 161 8,000  Level Jacksonville Center
Mon 10:01:15 AM 30.5150 -82.8806 311° West 163 188 8,000  Level Jacksonville Center
Mon 10:01:42 AM 30.5339 -82.8950 327° Northwest 145 167 8,000  Level Jacksonville Center
Mon 10:02:16 AM 30.5506 -82.9192 309° West 168 193 8,000  Level Jacksonville Center
Mon 10:02:42 AM 30.5650 -82.9336 319° Northwest 151 174 8,000  Level Jacksonville Center
Mon 10:03:17 AM 30.5839 -82.9553 315° West 167 192 8,000  Level Jacksonville Center
Mon 10:03:42 AM 30.6006 -82.9697 323° Northwest 157 181 8,000  Level Jacksonville Center
Mon 10:04:17 AM 30.6172 -82.9939 309° West 165 190 8,000  Level Jacksonville Center
Mon 10:04:42 AM 30.6361 -83.0036 336° Northwest 162 186 8,000  Level Jacksonville Center
Mon 10:05:18 AM 30.6506 -83.0278 305° West 163 188 8,000  Level Jacksonville Center
Mon 10:05:42 AM 30.6672 -83.0400 328° Northwest 162 186 8,000  Level Jacksonville Center
Mon 10:06:25 AM 30.6881 -83.0664 313° West 162 186 8,000  Level Jacksonville Center
Mon 10:07:25 AM 30.7236 -83.1053 317° Northwest 164 189 8,000  Level Jacksonville Center
Mon 10:08:26 AM 30.7547 -83.1392 317° Northwest 163 188 8,000  Level Jacksonville Center
Mon 10:09:27 AM 30.7903 -83.1781 317° Northwest 163 188 8,000  Level Jacksonville Center
Mon 10:10:27 AM 30.8236 -83.2119 319° Northwest 163 188 8,000  Level Jacksonville Center
Mon 10:11:22 AM 30.8528 -83.2433 317° Northwest 163 188 8,000  Level Jacksonville Center
Mon 10:12:22 AM 30.8881 -83.2822 317° Northwest 161 185 8,000  Level Jacksonville Center
Mon 10:13:23 AM 30.9194 -83.3164 317° Northwest 161 185 8,000  Level Jacksonville Center
Mon 10:14:24 AM 30.9547 -83.3528 319° Northwest 161 185 8,000  Level Jacksonville Center
Mon 10:15:24 AM 30.9797 -83.3892 309° West 160 184 8,000  Level Jacksonville Center
Mon 10:16:25 AM 31.0086 -83.4331 308° West 159 183 8,000  Level Jacksonville Center
Mon 10:17:26 AM 31.0336 -83.4792 302° West 161 185 8,000  Level Jacksonville Center
Mon 10:18:26 AM 31.0647 -83.5158 315° West 166 191 8,000  Level Jacksonville Center
Mon 10:18:30 AM 31.0708 -83.5208 325° Northwest 161 185 8,000  Level Jacksonville Center
Mon 10:19:27 AM 31.1000 -83.5500 319° Northwest 164 189 8,000  Level Jacksonville Center
Mon 10:19:30 AM 31.1042 -83.5550 314° West 161 185 8,000  Level Jacksonville Center
Mon 10:20:30 AM 31.1372 -83.5942 315° West 161 185 8,000  Level Jacksonville Center
Mon 10:21:28 AM 31.1686 -83.6258 319° Northwest 163 188 8,000  Level Jacksonville Center
Mon 10:21:30 AM 31.1728 -83.6258 360° North 161 185 8,000  Level Jacksonville Center
Mon 10:22:30 AM 31.2039 -83.6600 317° Northwest 161 185 8,000  Level Jacksonville Center
Mon 10:23:30 AM 31.2369 -83.6969 316° Northwest 189 217 8,000  Level Jacksonville Center
Mon 10:24:30 AM 31.2700 -83.7336 317° Northwest 178 205 8,000  Level Jacksonville Center
Mon 10:25:30 AM 31.3053 -83.7678 320° Northwest 173 199 8,000  Level Jacksonville Center
Mon 10:26:30 AM 31.3386 -83.8022 319° Northwest 167 192 8,000  Level Jacksonville Center
Mon 10:27:30 AM 31.3717 -83.8367 318° Northwest 167 192 8,000  Level Jacksonville Center
Mon 10:28:30 AM 31.4069 -83.8736 318° Northwest 167 192 8,000  Level Jacksonville Center
Mon 10:29:30 AM 31.4381 -83.9103 315° West 167 192 8,000  Level Jacksonville Center
Mon 10:30:30 AM 31.4731 -83.9450 320° Northwest 167 192 8,000  Level Jacksonville Center
Mon 10:31:30 AM 31.5083 -83.9819 318° Northwest 167 192 8,000  Level Jacksonville Center
Mon 10:32:30 AM 31.5394 -84.0139 319° Northwest 167 192 8,000  Level Jacksonville Center
Mon 10:33:30 AM 31.5744 -84.0508 318° Northwest 167 192 8,000  Level Jacksonville Center
Mon 10:34:30 AM 31.6078 -84.0856 318° Northwest 167 192 8,000  Level Jacksonville Center
Mon 10:35:30 AM 31.6428 -84.1225 318° Northwest 167 192 8,000 -50 Level Jacksonville Center
Mon 10:36:30 AM 31.6758 -84.1594 316° Northwest 167 192 7,900 -50 Descending Jacksonville Center
Mon 10:37:30 AM 31.7108 -84.1942 320° Northwest 167 192 7,900  Level Jacksonville Center
Mon 10:38:30 AM 31.7461 -84.2314 318° Northwest 167 192 7,900  Level Jacksonville Center
Mon 10:40:54 AM 31.8333 -84.3167 320° Northwest 168 193 7,900  Level Atlanta TRACON
Mon 10:41:54 AM 31.8667 -84.3500 320° Northwest 169 194 7,900  Level Atlanta TRACON
Mon 10:42:54 AM 31.9000 -84.3833 320° Northwest 166 191 7,900  Level Atlanta TRACON
Mon 10:43:48 AM 31.9333 -84.4333 308° West 167 192 7,900  Level Atlanta TRACON
Mon 10:44:54 AM 31.9667 -84.4667 320° Northwest 165 190 7,900  Level Atlanta TRACON
Mon 10:45:54 AM 32.0000 -84.5000 320° Northwest 164 189 7,900  Level Atlanta TRACON
Mon 10:46:49 AM 32.0333 -84.5333 320° Northwest 164 189 7,900  Level Atlanta TRACON
Mon 10:48:00 AM 32.0667 -84.5833 308° West 164 189 7,900  Level Atlanta TRACON
Mon 10:48:54 AM 32.1000 -84.6167 320° Northwest 166 191 7,900 105 Level Atlanta TRACON
Mon 10:49:54 AM 32.1333 -84.6500 320° Northwest 163 188 8,100 50 Climbing Atlanta TRACON
Mon 10:50:54 AM 32.1667 -84.6833 320° Northwest 165 190 8,000 -50 Descending Atlanta TRACON
Mon 10:51:55 AM 32.2167 -84.7167 331° Northwest 168 193 8,000  Level Atlanta TRACON
Mon 10:53:00 AM 32.2500 -84.7333 337° Northwest 166 191 8,000  Level Atlanta TRACON
Mon 10:54:01 AM 32.3000 -84.7667 331° Northwest 164 189 8,000  Level Atlanta TRACON
Mon 10:55:00 AM 32.3333 -84.8000 320° Northwest 163 188 8,000  Level Atlanta TRACON
Mon 10:56:00 AM 32.3667 -84.8333 320° Northwest 165 190 8,000  Level Atlanta TRACON
Mon 10:57:06 AM 32.4000 -84.8667 320° Northwest 163 188 8,000  Level Atlanta TRACON
Mon 10:58:00 AM 32.4500 -84.9000 331° Northwest 160 184 8,000  Level Atlanta TRACON
Mon 10:59:00 AM 32.4833 -84.9167 337° Northwest 152 175 8,000  Level Atlanta TRACON
Mon 11:00:00 AM 32.5167 -84.9500 320° Northwest 164 189 8,000  Level Atlanta TRACON
Mon 11:01:01 AM 32.5500 -84.9833 320° Northwest 144 166 8,000  Level Atlanta TRACON
Mon 11:02:00 AM 32.6000 -85.0167 331° Northwest 160 184 8,000  Level Atlanta TRACON
Mon 11:03:01 AM 32.6333 -85.0333 337° Northwest 162 186 8,000  Level Atlanta TRACON
Mon 11:04:00 AM 32.6667 -85.0667 320° Northwest 163 188 8,000  Level Atlanta TRACON
Mon 11:05:00 AM 32.7167 -85.1000 331° Northwest 164 189 8,000  Level Atlanta TRACON
Mon 11:06:01 AM 32.7500 -85.1333 320° Northwest 163 188 8,000  Level Atlanta TRACON
Mon 11:07:00 AM 32.7833 -85.1667 320° Northwest 163 188 8,000  Level Atlanta TRACON
Mon 11:08:01 AM 32.8167 -85.1833 337° Northwest 163 188 8,000  Level Atlanta TRACON
Mon 11:09:01 AM 32.8667 -85.2167 331° Northwest 163 188 8,000  Level Atlanta TRACON
Mon 11:10:01 AM 32.9000 -85.2500 320° Northwest 163 188 8,000  Level Atlanta TRACON
Mon 11:11:01 AM 32.9333 -85.2667 337° Northwest 163 188 8,000 48 Level Atlanta TRACON
Mon 11:12:05 AM 32.9758 -85.3042 323° Northwest 168 193 8,100 48 Climbing Atlanta Center
Mon 11:13:05 AM 33.0111 -85.3319 327° Northwest 162 186 8,100  Level Atlanta Center
Mon 11:14:05 AM 33.0503 -85.3622 327° Northwest 162 186 8,100 -50 Level Atlanta Center
Mon 11:15:05 AM 33.0917 -85.3975 324° Northwest 172 198 8,000 -50 Descending Atlanta Center
Mon 11:16:05 AM 33.1331 -85.4306 326° Northwest 167 192 8,000  Level Atlanta Center
Mon 11:17:05 AM 33.1703 -85.4583 328° Northwest 167 192 8,000 50 Level Atlanta Center
Mon 11:18:05 AM 33.1994 -85.4786 330° Northwest 158 182 8,100 50 Climbing Atlanta Center
Mon 11:19:05 AM 33.2386 -85.5092 327° Northwest 158 182 8,100  Level Atlanta Center
Mon 11:20:05 AM 33.2778 -85.5397 327° Northwest 158 182 8,100 -50 Level Atlanta Center
Mon 11:21:05 AM 33.3233 -85.5778 325° Northwest 170 196 8,000 -100 Descending Atlanta Center
Mon 11:22:05 AM 33.3628 -85.6083 327° Northwest 175 201 7,900 -300 Descending Atlanta Center
Mon 11:23:05 AM 33.4039 -85.6414 326° Northwest 175 201 7,400 -450 Descending Atlanta Center
Mon 11:24:05 AM 33.4392 -85.6694 326° Northwest 175 201 7,000 -450 Descending Atlanta Center
Mon 11:25:05 AM 33.4783 -85.6975 329° Northwest 175 201 6,500 -450 Descending Atlanta Center
Mon 11:26:05 AM 33.5156 -85.7281 326° Northwest 175 201 6,100 -250 Descending Atlanta Center
Mon 11:27:05 AM 33.5589 -85.7589 329° Northwest 170 196 6,000 -50 Descending Atlanta Center
Mon 11:28:05 AM 33.5919 -85.7894 322° Northwest 165 190 6,000 50 Level Atlanta Center
Mon 11:29:05 AM 33.6311 -85.8203 327° Northwest 165 190 6,100 50 Climbing Atlanta Center
Mon 11:30:05 AM 33.6767 -85.8536 329° Northwest 165 190 6,100  Level Atlanta Center
Mon 11:31:05 AM 33.7117 -85.8819 326° Northwest 165 190 6,100  Level Atlanta Center
Mon 11:32:05 AM 33.7486 -85.9125 325° Northwest 165 190 6,100  Level Atlanta Center
Mon 11:32:43 AM 33.7692 -85.9306 324° Northwest 162 186 6,100  Level Atlanta Center
Mon 11:33:05 AM 33.7858 -85.9408 333° Northwest 158 182 6,100 -247 Level Atlanta Center
Mon 11:33:56 AM 33.8147 -85.9689 321° Northwest 164 189 5,800 -400 Descending Atlanta Center
Mon 11:34:05 AM 33.8250 -85.9717 347° North 164 189 5,700 -174 Descending Atlanta Center
Mon 11:35:05 AM 33.8600 -86.0025 324° Northwest 164 189 5,600 1,150 Descending Atlanta Center
Mon 11:36:05 AM 33.8992 -86.0311 329° Northwest 164 189 8,000 1,200 Climbing Atlanta Center
Mon 11:37:05 AM 33.9342 -86.0569 329° Northwest 164 189 8,000  Level Atlanta Center
Mon 11:38:05 AM 33.9425 -86.0619 334° Northwest 164 189 8,000  Level Atlanta Center
Mon 11:40:05 AM 33.9425 -86.0619 270° West 164 189 8,000  Level Atlanta Center
Mon 11:42:05 AM 33.9425 -86.0619 270° West 164 189 8,000  Level Atlanta Center

Login

Don't have an account? Register now (free) for customized features, flight alerts, and more!